sensor_id;sensor_type;location;lat;lon;timestamp;P1;durP1;ratioP1;P2;durP2;ratioP2
77890;SDS011;67084;43.624;3.876;2023-12-20T00:01:36;15.73;;;11.70;;
77890;SDS011;67084;43.624;3.876;2023-12-20T00:04:02;15.30;;;13.85;;
77890;SDS011;67084;43.624;3.876;2023-12-20T00:06:29;14.48;;;11.50;;
77890;SDS011;67084;43.624;3.876;2023-12-20T00:08:55;13.80;;;11.15;;
77890;SDS011;67084;43.624;3.876;2023-12-20T00:11:22;16.80;;;13.25;;
77890;SDS011;67084;43.624;3.876;2023-12-20T00:13:48;17.98;;;12.60;;
77890;SDS011;67084;43.624;3.876;2023-12-20T00:16:15;12.45;;;11.13;;
77890;SDS011;67084;43.624;3.876;2023-12-20T00:18:41;14.65;;;13.13;;
77890;SDS011;67084;43.624;3.876;2023-12-20T00:21:07;13.68;;;12.13;;
77890;SDS011;67084;43.624;3.876;2023-12-20T00:23:33;15.15;;;13.45;;
77890;SDS011;67084;43.624;3.876;2023-12-20T00:25:59;21.05;;;19.15;;
77890;SDS011;67084;43.624;3.876;2023-12-20T00:28:25;12.65;;;11.35;;
77890;SDS011;67084;43.624;3.876;2023-12-20T00:30:51;13.07;;;11.23;;
77890;SDS011;67084;43.624;3.876;2023-12-20T00:33:17;12.40;;;10.85;;
77890;SDS011;67084;43.624;3.876;2023-12-20T00:35:43;13.73;;;12.32;;
77890;SDS011;67084;43.624;3.876;2023-12-20T00:38:09;16.00;;;13.77;;
77890;SDS011;67084;43.624;3.876;2023-12-20T00:40:36;13.43;;;11.00;;
77890;SDS011;67084;43.624;3.876;2023-12-20T00:43:02;11.45;;;10.25;;
77890;SDS011;67084;43.624;3.876;2023-12-20T00:45:28;13.15;;;11.85;;
77890;SDS011;67084;43.624;3.876;2023-12-20T00:47:54;14.88;;;13.40;;
77890;SDS011;67084;43.624;3.876;2023-12-20T00:50:20;12.43;;;11.07;;
77890;SDS011;67084;43.624;3.876;2023-12-20T00:52:47;12.10;;;10.25;;
77890;SDS011;67084;43.624;3.876;2023-12-20T00:55:13;13.88;;;11.07;;
77890;SDS011;67084;43.624;3.876;2023-12-20T00:57:39;13.35;;;11.95;;
77890;SDS011;67084;43.624;3.876;2023-12-20T01:00:06;13.63;;;11.18;;
77890;SDS011;67084;43.624;3.876;2023-12-20T01:02:34;13.65;;;11.48;;
77890;SDS011;67084;43.624;3.876;2023-12-20T01:05:00;16.20;;;10.93;;
77890;SDS011;67084;43.624;3.876;2023-12-20T01:07:27;15.30;;;12.63;;
77890;SDS011;67084;43.624;3.876;2023-12-20T01:09:53;13.68;;;11.77;;
77890;SDS011;67084;43.624;3.876;2023-12-20T01:12:19;15.75;;;12.27;;
77890;SDS011;67084;43.624;3.876;2023-12-20T01:14:46;15.05;;;12.60;;
77890;SDS011;67084;43.624;3.876;2023-12-20T01:17:12;12.52;;;11.25;;
77890;SDS011;67084;43.624;3.876;2023-12-20T01:19:38;14.48;;;12.57;;
77890;SDS011;67084;43.624;3.876;2023-12-20T01:22:04;14.48;;;10.30;;
77890;SDS011;67084;43.624;3.876;2023-12-20T01:24:30;14.25;;;12.60;;
77890;SDS011;67084;43.624;3.876;2023-12-20T01:26:56;22.75;;;20.73;;
77890;SDS011;67084;43.624;3.876;2023-12-20T01:29:22;13.52;;;11.98;;
77890;SDS011;67084;43.624;3.876;2023-12-20T01:31:48;13.48;;;11.90;;
77890;SDS011;67084;43.624;3.876;2023-12-20T01:34:14;14.05;;;11.93;;
77890;SDS011;67084;43.624;3.876;2023-12-20T01:36:40;15.07;;;13.60;;
77890;SDS011;67084;43.624;3.876;2023-12-20T01:39:06;21.15;;;19.35;;
77890;SDS011;67084;43.624;3.876;2023-12-20T01:41:33;14.65;;;12.23;;
77890;SDS011;67084;43.624;3.876;2023-12-20T01:43:59;12.52;;;10.95;;
77890;SDS011;67084;43.624;3.876;2023-12-20T01:46:25;14.13;;;12.68;;
77890;SDS011;67084;43.624;3.876;2023-12-20T01:48:51;13.70;;;12.30;;
77890;SDS011;67084;43.624;3.876;2023-12-20T01:51:17;13.85;;;12.45;;
77890;SDS011;67084;43.624;3.876;2023-12-20T01:53:43;13.68;;;11.60;;
77890;SDS011;67084;43.624;3.876;2023-12-20T01:56:10;16.25;;;14.55;;
77890;SDS011;67084;43.624;3.876;2023-12-20T01:58:41;15.00;;;12.35;;
77890;SDS011;67084;43.624;3.876;2023-12-20T02:01:09;16.45;;;13.15;;
77890;SDS011;67084;43.624;3.876;2023-12-20T02:03:35;15.32;;;13.80;;
77890;SDS011;67084;43.624;3.876;2023-12-20T02:06:02;14.68;;;12.00;;
77890;SDS011;67084;43.624;3.876;2023-12-20T02:08:28;17.27;;;13.75;;
77890;SDS011;67084;43.624;3.876;2023-12-20T02:10:54;17.42;;;14.43;;
77890;SDS011;67084;43.624;3.876;2023-12-20T02:13:21;14.80;;;12.32;;
77890;SDS011;67084;43.624;3.876;2023-12-20T02:15:47;14.95;;;12.25;;
77890;SDS011;67084;43.624;3.876;2023-12-20T02:18:13;15.02;;;12.88;;
77890;SDS011;67084;43.624;3.876;2023-12-20T02:20:41;15.73;;;12.95;;
77890;SDS011;67084;43.624;3.876;2023-12-20T02:23:07;16.20;;;13.77;;
77890;SDS011;67084;43.624;3.876;2023-12-20T02:25:33;22.23;;;20.15;;
77890;SDS011;67084;43.624;3.876;2023-12-20T02:27:59;15.07;;;13.25;;
77890;SDS011;67084;43.624;3.876;2023-12-20T02:30:25;15.18;;;12.70;;
77890;SDS011;67084;43.624;3.876;2023-12-20T02:32:51;13.43;;;11.90;;
77890;SDS011;67084;43.624;3.876;2023-12-20T02:35:18;14.45;;;12.95;;
77890;SDS011;67084;43.624;3.876;2023-12-20T02:37:44;15.48;;;13.68;;
77890;SDS011;67084;43.624;3.876;2023-12-20T02:40:10;14.85;;;12.35;;
77890;SDS011;67084;43.624;3.876;2023-12-20T02:42:36;15.50;;;12.48;;
77890;SDS011;67084;43.624;3.876;2023-12-20T02:45:02;21.23;;;19.17;;
77890;SDS011;67084;43.624;3.876;2023-12-20T02:47:29;15.20;;;13.60;;
77890;SDS011;67084;43.624;3.876;2023-12-20T02:49:55;16.88;;;13.30;;
77890;SDS011;67084;43.624;3.876;2023-12-20T02:52:22;15.70;;;13.98;;
77890;SDS011;67084;43.624;3.876;2023-12-20T02:54:49;15.57;;;13.95;;
77890;SDS011;67084;43.624;3.876;2023-12-20T02:57:15;15.80;;;13.30;;
77890;SDS011;67084;43.624;3.876;2023-12-20T02:59:41;19.58;;;15.10;;
77890;SDS011;67084;43.624;3.876;2023-12-20T03:02:07;15.77;;;13.38;;
77890;SDS011;67084;43.624;3.876;2023-12-20T03:04:33;15.57;;;13.20;;
77890;SDS011;67084;43.624;3.876;2023-12-20T03:06:59;16.63;;;12.68;;
77890;SDS011;67084;43.624;3.876;2023-12-20T03:09:25;11.73;;;10.18;;
77890;SDS011;67084;43.624;3.876;2023-12-20T03:11:51;13.02;;;10.90;;
77890;SDS011;67084;43.624;3.876;2023-12-20T03:14:17;15.35;;;13.82;;
77890;SDS011;67084;43.624;3.876;2023-12-20T03:16:46;14.50;;;12.85;;
77890;SDS011;67084;43.624;3.876;2023-12-20T03:19:12;13.70;;;11.80;;
77890;SDS011;67084;43.624;3.876;2023-12-20T03:21:38;15.02;;;13.32;;
77890;SDS011;67084;43.624;3.876;2023-12-20T03:24:04;15.52;;;12.45;;
77890;SDS011;67084;43.624;3.876;2023-12-20T03:26:30;16.15;;;11.98;;
77890;SDS011;67084;43.624;3.876;2023-12-20T03:28:56;15.68;;;12.00;;
77890;SDS011;67084;43.624;3.876;2023-12-20T03:31:22;13.65;;;12.13;;
77890;SDS011;67084;43.624;3.876;2023-12-20T03:33:48;16.90;;;13.05;;
77890;SDS011;67084;43.624;3.876;2023-12-20T03:36:16;15.68;;;12.77;;
77890;SDS011;67084;43.624;3.876;2023-12-20T03:38:42;13.80;;;11.85;;
77890;SDS011;67084;43.624;3.876;2023-12-20T03:41:08;14.25;;;12.77;;
77890;SDS011;67084;43.624;3.876;2023-12-20T03:43:34;13.23;;;11.82;;
77890;SDS011;67084;43.624;3.876;2023-12-20T03:46:00;13.43;;;11.07;;
77890;SDS011;67084;43.624;3.876;2023-12-20T03:48:28;13.70;;;12.05;;
77890;SDS011;67084;43.624;3.876;2023-12-20T03:50:54;14.38;;;12.65;;
77890;SDS011;67084;43.624;3.876;2023-12-20T03:53:20;12.45;;;10.85;;
77890;SDS011;67084;43.624;3.876;2023-12-20T03:55:46;12.50;;;9.93;;
77890;SDS011;67084;43.624;3.876;2023-12-20T03:58:12;13.82;;;10.38;;
77890;SDS011;67084;43.624;3.876;2023-12-20T04:00:38;14.35;;;12.10;;
77890;SDS011;67084;43.624;3.876;2023-12-20T04:03:04;12.75;;;10.88;;
77890;SDS011;67084;43.624;3.876;2023-12-20T04:05:30;11.95;;;10.70;;
77890;SDS011;67084;43.624;3.876;2023-12-20T04:07:57;14.25;;;11.88;;
77890;SDS011;67084;43.624;3.876;2023-12-20T04:10:23;15.10;;;12.68;;
77890;SDS011;67084;43.624;3.876;2023-12-20T04:12:49;15.93;;;13.68;;
77890;SDS011;67084;43.624;3.876;2023-12-20T04:15:15;16.35;;;13.50;;
77890;SDS011;67084;43.624;3.876;2023-12-20T04:17:41;15.90;;;14.07;;
77890;SDS011;67084;43.624;3.876;2023-12-20T04:20:07;14.70;;;13.05;;
77890;SDS011;67084;43.624;3.876;2023-12-20T04:22:33;13.65;;;12.13;;
77890;SDS011;67084;43.624;3.876;2023-12-20T04:24:59;13.68;;;10.88;;
77890;SDS011;67084;43.624;3.876;2023-12-20T04:27:25;13.77;;;12.38;;
77890;SDS011;67084;43.624;3.876;2023-12-20T04:29:51;14.43;;;12.93;;
77890;SDS011;67084;43.624;3.876;2023-12-20T04:32:17;14.80;;;13.23;;
77890;SDS011;67084;43.624;3.876;2023-12-20T04:34:43;15.07;;;13.45;;
77890;SDS011;67084;43.624;3.876;2023-12-20T04:37:09;13.68;;;12.27;;
77890;SDS011;67084;43.624;3.876;2023-12-20T04:39:35;12.50;;;11.20;;
77890;SDS011;67084;43.624;3.876;2023-12-20T04:42:01;13.13;;;11.82;;
77890;SDS011;67084;43.624;3.876;2023-12-20T04:44:27;11.48;;;10.27;;
77890;SDS011;67084;43.624;3.876;2023-12-20T04:46:53;13.10;;;11.75;;
77890;SDS011;67084;43.624;3.876;2023-12-20T04:49:21;12.55;;;11.25;;
77890;SDS011;67084;43.624;3.876;2023-12-20T04:51:47;22.55;;;15.23;;
77890;SDS011;67084;43.624;3.876;2023-12-20T04:54:14;30.65;;;16.42;;
77890;SDS011;67084;43.624;3.876;2023-12-20T04:56:41;24.23;;;15.15;;
77890;SDS011;67084;43.624;3.876;2023-12-20T04:59:07;30.60;;;16.25;;
77890;SDS011;67084;43.624;3.876;2023-12-20T05:01:33;24.60;;;14.40;;
77890;SDS011;67084;43.624;3.876;2023-12-20T05:03:59;18.90;;;12.30;;
77890;SDS011;67084;43.624;3.876;2023-12-20T05:06:25;11.80;;;10.35;;
77890;SDS011;67084;43.624;3.876;2023-12-20T05:08:51;12.85;;;10.88;;
77890;SDS011;67084;43.624;3.876;2023-12-20T05:11:17;11.80;;;10.55;;
77890;SDS011;67084;43.624;3.876;2023-12-20T05:13:43;13.63;;;12.30;;
77890;SDS011;67084;43.624;3.876;2023-12-20T05:16:09;12.18;;;10.90;;
77890;SDS011;67084;43.624;3.876;2023-12-20T05:18:35;13.82;;;10.88;;
77890;SDS011;67084;43.624;3.876;2023-12-20T05:21:01;10.73;;;9.57;;
77890;SDS011;67084;43.624;3.876;2023-12-20T05:23:27;19.52;;;17.67;;
77890;SDS011;67084;43.624;3.876;2023-12-20T05:25:53;12.65;;;11.23;;
77890;SDS011;67084;43.624;3.876;2023-12-20T05:28:19;12.55;;;11.35;;
77890;SDS011;67084;43.624;3.876;2023-12-20T05:30:45;12.55;;;11.30;;
77890;SDS011;67084;43.624;3.876;2023-12-20T05:33:11;11.95;;;10.75;;
77890;SDS011;67084;43.624;3.876;2023-12-20T05:35:37;13.48;;;12.05;;
77890;SDS011;67084;43.624;3.876;2023-12-20T05:38:03;14.52;;;12.20;;
77890;SDS011;67084;43.624;3.876;2023-12-20T05:40:29;13.45;;;12.23;;
77890;SDS011;67084;43.624;3.876;2023-12-20T05:42:55;15.13;;;11.57;;
77890;SDS011;67084;43.624;3.876;2023-12-20T05:45:21;14.40;;;12.93;;
77890;SDS011;67084;43.624;3.876;2023-12-20T05:47:47;13.68;;;12.38;;
77890;SDS011;67084;43.624;3.876;2023-12-20T05:50:13;12.25;;;10.95;;
77890;SDS011;67084;43.624;3.876;2023-12-20T05:52:39;12.82;;;11.15;;
77890;SDS011;67084;43.624;3.876;2023-12-20T05:55:06;14.65;;;10.10;;
77890;SDS011;67084;43.624;3.876;2023-12-20T05:57:32;14.82;;;13.23;;
77890;SDS011;67084;43.624;3.876;2023-12-20T05:59:58;11.75;;;10.55;;
77890;SDS011;67084;43.624;3.876;2023-12-20T06:02:24;13.70;;;12.30;;
77890;SDS011;67084;43.624;3.876;2023-12-20T06:04:50;13.38;;;12.07;;
77890;SDS011;67084;43.624;3.876;2023-12-20T06:07:16;13.07;;;11.57;;
77890;SDS011;67084;43.624;3.876;2023-12-20T06:09:42;11.57;;;9.40;;
77890;SDS011;67084;43.624;3.876;2023-12-20T06:12:08;15.07;;;13.75;;
77890;SDS011;67084;43.624;3.876;2023-12-20T06:14:35;16.25;;;14.75;;
77890;SDS011;67084;43.624;3.876;2023-12-20T06:17:01;11.15;;;9.48;;
77890;SDS011;67084;43.624;3.876;2023-12-20T06:19:27;10.88;;;9.77;;
77890;SDS011;67084;43.624;3.876;2023-12-20T06:21:53;9.23;;;8.32;;
77890;SDS011;67084;43.624;3.876;2023-12-20T06:24:19;9.30;;;8.48;;
77890;SDS011;67084;43.624;3.876;2023-12-20T06:26:46;10.77;;;9.77;;
77890;SDS011;67084;43.624;3.876;2023-12-20T06:29:12;8.50;;;7.70;;
77890;SDS011;67084;43.624;3.876;2023-12-20T06:31:38;9.85;;;9.05;;
77890;SDS011;67084;43.624;3.876;2023-12-20T06:34:04;9.02;;;8.23;;
77890;SDS011;67084;43.624;3.876;2023-12-20T06:36:30;18.25;;;17.02;;
77890;SDS011;67084;43.624;3.876;2023-12-20T06:38:56;9.30;;;8.40;;
77890;SDS011;67084;43.624;3.876;2023-12-20T06:41:23;9.00;;;8.20;;
77890;SDS011;67084;43.624;3.876;2023-12-20T06:43:49;9.00;;;8.20;;
77890;SDS011;67084;43.624;3.876;2023-12-20T06:46:16;9.25;;;7.53;;
77890;SDS011;67084;43.624;3.876;2023-12-20T06:48:42;9.05;;;8.25;;
77890;SDS011;67084;43.624;3.876;2023-12-20T06:51:11;8.27;;;7.43;;
77890;SDS011;67084;43.624;3.876;2023-12-20T06:53:38;9.18;;;8.20;;
77890;SDS011;67084;43.624;3.876;2023-12-20T06:56:04;12.32;;;11.10;;
77890;SDS011;67084;43.624;3.876;2023-12-20T06:58:30;11.00;;;9.90;;
77890;SDS011;67084;43.624;3.876;2023-12-20T07:00:56;11.75;;;10.77;;
77890;SDS011;67084;43.624;3.876;2023-12-20T07:03:22;8.05;;;7.35;;
77890;SDS011;67084;43.624;3.876;2023-12-20T07:05:48;10.50;;;9.52;;
77890;SDS011;67084;43.624;3.876;2023-12-20T07:08:14;10.25;;;9.25;;
77890;SDS011;67084;43.624;3.876;2023-12-20T07:10:40;10.18;;;9.20;;
77890;SDS011;67084;43.624;3.876;2023-12-20T07:13:06;13.43;;;11.02;;
77890;SDS011;67084;43.624;3.876;2023-12-20T07:15:33;11.18;;;9.63;;
77890;SDS011;67084;43.624;3.876;2023-12-20T07:17:59;17.23;;;15.77;;
77890;SDS011;67084;43.624;3.876;2023-12-20T07:20:25;10.23;;;9.25;;
77890;SDS011;67084;43.624;3.876;2023-12-20T07:22:51;8.73;;;7.82;;
77890;SDS011;67084;43.624;3.876;2023-12-20T07:25:17;9.38;;;8.02;;
77890;SDS011;67084;43.624;3.876;2023-12-20T07:27:45;10.18;;;9.18;;
77890;SDS011;67084;43.624;3.876;2023-12-20T07:30:11;16.13;;;14.90;;
77890;SDS011;67084;43.624;3.876;2023-12-20T07:32:37;9.77;;;8.35;;
77890;SDS011;67084;43.624;3.876;2023-12-20T07:35:03;12.15;;;9.05;;
77890;SDS011;67084;43.624;3.876;2023-12-20T07:37:30;8.88;;;8.05;;
77890;SDS011;67084;43.624;3.876;2023-12-20T07:39:56;7.68;;;6.97;;
77890;SDS011;67084;43.624;3.876;2023-12-20T07:42:22;8.68;;;7.93;;
77890;SDS011;67084;43.624;3.876;2023-12-20T07:44:48;10.18;;;8.55;;
77890;SDS011;67084;43.624;3.876;2023-12-20T07:47:14;8.98;;;6.82;;
77890;SDS011;67084;43.624;3.876;2023-12-20T07:49:44;8.85;;;8.05;;
77890;SDS011;67084;43.624;3.876;2023-12-20T07:52:10;7.45;;;6.75;;
77890;SDS011;67084;43.624;3.876;2023-12-20T07:54:36;9.23;;;8.32;;
77890;SDS011;67084;43.624;3.876;2023-12-20T07:57:02;9.05;;;7.20;;
77890;SDS011;67084;43.624;3.876;2023-12-20T07:59:28;8.63;;;7.82;;
77890;SDS011;67084;43.624;3.876;2023-12-20T08:01:54;8.70;;;7.80;;
77890;SDS011;67084;43.624;3.876;2023-12-20T08:04:20;8.50;;;7.47;;
77890;SDS011;67084;43.624;3.876;2023-12-20T08:06:47;7.45;;;6.72;;
77890;SDS011;67084;43.624;3.876;2023-12-20T08:09:13;6.72;;;6.10;;
77890;SDS011;67084;43.624;3.876;2023-12-20T08:11:39;8.15;;;7.38;;
77890;SDS011;67084;43.624;3.876;2023-12-20T08:14:05;6.68;;;6.18;;
77890;SDS011;67084;43.624;3.876;2023-12-20T08:16:31;6.15;;;5.70;;
77890;SDS011;67084;43.624;3.876;2023-12-20T08:18:57;5.47;;;5.00;;
77890;SDS011;67084;43.624;3.876;2023-12-20T08:21:23;11.38;;;10.48;;
77890;SDS011;67084;43.624;3.876;2023-12-20T08:23:49;7.28;;;6.55;;
77890;SDS011;67084;43.624;3.876;2023-12-20T08:26:18;6.68;;;6.18;;
77890;SDS011;67084;43.624;3.876;2023-12-20T08:28:45;6.03;;;5.53;;
77890;SDS011;67084;43.624;3.876;2023-12-20T08:31:14;7.28;;;6.57;;
77890;SDS011;67084;43.624;3.876;2023-12-20T08:33:41;7.65;;;6.78;;
77890;SDS011;67084;43.624;3.876;2023-12-20T08:36:07;7.53;;;6.88;;
77890;SDS011;67084;43.624;3.876;2023-12-20T08:38:33;7.35;;;6.72;;
77890;SDS011;67084;43.624;3.876;2023-12-20T08:41:00;7.20;;;5.95;;
77890;SDS011;67084;43.624;3.876;2023-12-20T08:43:26;5.97;;;5.47;;
77890;SDS011;67084;43.624;3.876;2023-12-20T08:45:52;7.00;;;6.22;;
77890;SDS011;67084;43.624;3.876;2023-12-20T08:48:18;7.88;;;7.15;;
77890;SDS011;67084;43.624;3.876;2023-12-20T08:50:44;5.97;;;5.38;;
77890;SDS011;67084;43.624;3.876;2023-12-20T08:53:10;7.70;;;5.75;;
77890;SDS011;67084;43.624;3.876;2023-12-20T08:55:37;6.78;;;6.05;;
77890;SDS011;67084;43.624;3.876;2023-12-20T08:58:03;7.25;;;6.00;;
77890;SDS011;67084;43.624;3.876;2023-12-20T09:00:31;8.20;;;7.60;;
77890;SDS011;67084;43.624;3.876;2023-12-20T09:02:57;5.85;;;5.35;;
77890;SDS011;67084;43.624;3.876;2023-12-20T09:05:24;12.45;;;11.60;;
77890;SDS011;67084;43.624;3.876;2023-12-20T09:07:50;6.07;;;5.53;;
77890;SDS011;67084;43.624;3.876;2023-12-20T09:10:16;6.97;;;6.35;;
77890;SDS011;67084;43.624;3.876;2023-12-20T09:12:47;13.35;;;12.35;;
77890;SDS011;67084;43.624;3.876;2023-12-20T09:15:13;6.53;;;5.93;;
77890;SDS011;67084;43.624;3.876;2023-12-20T09:17:40;7.00;;;6.38;;
77890;SDS011;67084;43.624;3.876;2023-12-20T09:20:06;6.35;;;5.82;;
77890;SDS011;67084;43.624;3.876;2023-12-20T09:22:33;6.82;;;6.22;;
77890;SDS011;67084;43.624;3.876;2023-12-20T09:24:59;7.43;;;6.80;;
77890;SDS011;67084;43.624;3.876;2023-12-20T09:27:26;5.32;;;4.90;;
77890;SDS011;67084;43.624;3.876;2023-12-20T09:29:52;4.88;;;4.38;;
77890;SDS011;67084;43.624;3.876;2023-12-20T09:32:19;5.80;;;5.38;;
77890;SDS011;67084;43.624;3.876;2023-12-20T09:34:48;5.07;;;4.57;;
77890;SDS011;67084;43.624;3.876;2023-12-20T09:37:14;11.00;;;10.32;;
77890;SDS011;67084;43.624;3.876;2023-12-20T09:39:40;9.32;;;8.70;;
77890;SDS011;67084;43.624;3.876;2023-12-20T09:42:06;5.13;;;4.82;;
77890;SDS011;67084;43.624;3.876;2023-12-20T09:44:33;7.28;;;5.55;;
77890;SDS011;67084;43.624;3.876;2023-12-20T09:47:05;5.57;;;4.57;;
77890;SDS011;67084;43.624;3.876;2023-12-20T09:49:32;5.38;;;4.97;;
77890;SDS011;67084;43.624;3.876;2023-12-20T09:51:58;4.60;;;4.30;;
77890;SDS011;67084;43.624;3.876;2023-12-20T09:54:25;5.53;;;5.00;;
77890;SDS011;67084;43.624;3.876;2023-12-20T09:56:52;9.68;;;9.05;;
77890;SDS011;67084;43.624;3.876;2023-12-20T09:59:18;5.90;;;5.53;;
77890;SDS011;67084;43.624;3.876;2023-12-20T10:01:44;5.10;;;4.78;;
77890;SDS011;67084;43.624;3.876;2023-12-20T10:04:11;5.53;;;5.10;;
77890;SDS011;67084;43.624;3.876;2023-12-20T10:06:41;4.20;;;3.90;;
77890;SDS011;67084;43.624;3.876;2023-12-20T10:09:11;5.18;;;4.78;;
77890;SDS011;67084;43.624;3.876;2023-12-20T10:11:37;9.05;;;8.50;;
77890;SDS011;67084;43.624;3.876;2023-12-20T10:14:04;3.75;;;3.33;;
77890;SDS011;67084;43.624;3.876;2023-12-20T10:16:30;3.60;;;3.30;;
77890;SDS011;67084;43.624;3.876;2023-12-20T10:18:57;3.55;;;3.25;;
77890;SDS011;67084;43.624;3.876;2023-12-20T10:21:24;3.90;;;3.60;;
77890;SDS011;67084;43.624;3.876;2023-12-20T10:23:53;3.47;;;3.28;;
77890;SDS011;67084;43.624;3.876;2023-12-20T10:26:20;3.65;;;3.35;;
77890;SDS011;67084;43.624;3.876;2023-12-20T10:28:49;3.38;;;3.17;;
77890;SDS011;67084;43.624;3.876;2023-12-20T10:31:28;3.67;;;3.42;;
77890;SDS011;67084;43.624;3.876;2023-12-20T10:33:57;3.08;;;2.90;;
77890;SDS011;67084;43.624;3.876;2023-12-20T10:36:24;4.75;;;4.45;;
77890;SDS011;67084;43.624;3.876;2023-12-20T10:38:52;6.75;;;3.85;;
77890;SDS011;67084;43.624;3.876;2023-12-20T10:41:19;3.15;;;2.95;;
77890;SDS011;67084;43.624;3.876;2023-12-20T10:43:48;5.65;;;5.35;;
77890;SDS011;67084;43.624;3.876;2023-12-20T10:46:14;4.30;;;4.10;;
77890;SDS011;67084;43.624;3.876;2023-12-20T10:48:40;4.50;;;4.20;;
77890;SDS011;67084;43.624;3.876;2023-12-20T10:51:07;3.47;;;3.28;;
77890;SDS011;67084;43.624;3.876;2023-12-20T10:53:34;3.45;;;3.25;;
77890;SDS011;67084;43.624;3.876;2023-12-20T10:56:01;4.05;;;3.75;;
77890;SDS011;67084;43.624;3.876;2023-12-20T10:58:28;5.10;;;4.80;;
77890;SDS011;67084;43.624;3.876;2023-12-20T11:00:58;3.38;;;3.17;;
77890;SDS011;67084;43.624;3.876;2023-12-20T11:03:26;3.55;;;3.35;;
77890;SDS011;67084;43.624;3.876;2023-12-20T11:08:21;2.58;;;2.47;;
77890;SDS011;67084;43.624;3.876;2023-12-20T11:10:55;4.28;;;3.97;;
77890;SDS011;67084;43.624;3.876;2023-12-20T11:13:26;2.72;;;2.53;;
77890;SDS011;67084;43.624;3.876;2023-12-20T11:15:54;3.45;;;3.15;;
77890;SDS011;67084;43.624;3.876;2023-12-20T11:18:20;6.85;;;6.45;;
77890;SDS011;67084;43.624;3.876;2023-12-20T11:20:54;3.28;;;3.00;;
77890;SDS011;67084;43.624;3.876;2023-12-20T11:23:20;3.13;;;2.42;;
77890;SDS011;67084;43.624;3.876;2023-12-20T11:25:54;3.17;;;2.95;;
77890;SDS011;67084;43.624;3.876;2023-12-20T11:28:24;7.88;;;7.25;;
77890;SDS011;67084;43.624;3.876;2023-12-20T11:30:51;8.52;;;8.10;;
77890;SDS011;67084;43.624;3.876;2023-12-20T11:33:20;5.55;;;5.18;;
77890;SDS011;67084;43.624;3.876;2023-12-20T11:35:47;3.33;;;3.08;;
77890;SDS011;67084;43.624;3.876;2023-12-20T11:38:13;6.55;;;6.22;;
77890;SDS011;67084;43.624;3.876;2023-12-20T11:40:41;3.45;;;3.30;;
77890;SDS011;67084;43.624;3.876;2023-12-20T11:43:07;2.13;;;2.03;;
77890;SDS011;67084;43.624;3.876;2023-12-20T11:45:33;2.50;;;2.38;;
77890;SDS011;67084;43.624;3.876;2023-12-20T11:48:00;1.63;;;1.52;;
77890;SDS011;67084;43.624;3.876;2023-12-20T11:50:27;2.50;;;2.25;;
77890;SDS011;67084;43.624;3.876;2023-12-20T11:52:54;2.58;;;2.47;;
77890;SDS011;67084;43.624;3.876;2023-12-20T11:55:24;3.65;;;3.45;;
77890;SDS011;67084;43.624;3.876;2023-12-20T11:57:50;1.73;;;1.63;;
77890;SDS011;67084;43.624;3.876;2023-12-20T12:00:17;2.30;;;2.20;;
77890;SDS011;67084;43.624;3.876;2023-12-20T12:02:43;2.90;;;2.58;;
77890;SDS011;67084;43.624;3.876;2023-12-20T12:05:09;3.30;;;3.10;;
77890;SDS011;67084;43.624;3.876;2023-12-20T12:07:35;8.40;;;2.72;;
77890;SDS011;67084;43.624;3.876;2023-12-20T12:10:02;5.53;;;5.22;;
77890;SDS011;67084;43.624;3.876;2023-12-20T12:12:28;5.10;;;4.80;;
77890;SDS011;67084;43.624;3.876;2023-12-20T12:14:56;2.92;;;2.72;;
77890;SDS011;67084;43.624;3.876;2023-12-20T12:17:22;8.05;;;7.65;;
77890;SDS011;67084;43.624;3.876;2023-12-20T12:19:48;3.17;;;2.88;;
77890;SDS011;67084;43.624;3.876;2023-12-20T12:22:14;2.97;;;2.78;;
77890;SDS011;67084;43.624;3.876;2023-12-20T12:24:45;3.88;;;3.67;;
77890;SDS011;67084;43.624;3.876;2023-12-20T12:27:11;4.15;;;3.88;;
77890;SDS011;67084;43.624;3.876;2023-12-20T12:29:37;3.58;;;3.38;;
77890;SDS011;67084;43.624;3.876;2023-12-20T12:32:07;4.90;;;4.63;;
77890;SDS011;67084;43.624;3.876;2023-12-20T12:34:34;2.97;;;2.78;;
77890;SDS011;67084;43.624;3.876;2023-12-20T12:37:00;3.42;;;3.22;;
77890;SDS011;67084;43.624;3.876;2023-12-20T12:39:26;7.80;;;5.28;;
77890;SDS011;67084;43.624;3.876;2023-12-20T12:41:52;4.00;;;3.70;;
77890;SDS011;67084;43.624;3.876;2023-12-20T12:44:18;3.33;;;3.13;;
77890;SDS011;67084;43.624;3.876;2023-12-20T12:46:45;4.70;;;4.22;;
77890;SDS011;67084;43.624;3.876;2023-12-20T12:49:11;3.88;;;3.47;;
77890;SDS011;67084;43.624;3.876;2023-12-20T12:51:38;3.92;;;3.70;;
77890;SDS011;67084;43.624;3.876;2023-12-20T12:54:04;4.43;;;4.03;;
77890;SDS011;67084;43.624;3.876;2023-12-20T12:56:30;4.22;;;4.00;;
77890;SDS011;67084;43.624;3.876;2023-12-20T12:58:56;3.60;;;3.38;;
77890;SDS011;67084;43.624;3.876;2023-12-20T13:01:22;3.25;;;2.92;;
77890;SDS011;67084;43.624;3.876;2023-12-20T13:03:48;5.90;;;4.78;;
77890;SDS011;67084;43.624;3.876;2023-12-20T13:06:14;4.72;;;4.43;;
77890;SDS011;67084;43.624;3.876;2023-12-20T13:08:40;4.30;;;4.03;;
77890;SDS011;67084;43.624;3.876;2023-12-20T13:11:06;4.70;;;4.13;;
77890;SDS011;67084;43.624;3.876;2023-12-20T13:13:32;4.38;;;4.13;;
77890;SDS011;67084;43.624;3.876;2023-12-20T13:15:59;3.80;;;3.60;;
77890;SDS011;67084;43.624;3.876;2023-12-20T13:18:25;3.15;;;2.95;;
77890;SDS011;67084;43.624;3.876;2023-12-20T13:20:52;4.93;;;4.53;;
77890;SDS011;67084;43.624;3.876;2023-12-20T13:23:18;3.60;;;3.30;;
77890;SDS011;67084;43.624;3.876;2023-12-20T13:25:44;3.67;;;3.38;;
77890;SDS011;67084;43.624;3.876;2023-12-20T13:28:13;6.63;;;6.03;;
77890;SDS011;67084;43.624;3.876;2023-12-20T13:30:39;6.75;;;6.05;;
77890;SDS011;67084;43.624;3.876;2023-12-20T13:33:05;4.63;;;4.22;;
77890;SDS011;67084;43.624;3.876;2023-12-20T13:35:32;4.28;;;3.78;;
77890;SDS011;67084;43.624;3.876;2023-12-20T13:37:58;9.45;;;8.80;;
77890;SDS011;67084;43.624;3.876;2023-12-20T13:40:24;4.40;;;3.33;;
77890;SDS011;67084;43.624;3.876;2023-12-20T13:42:50;4.95;;;4.55;;
77890;SDS011;67084;43.624;3.876;2023-12-20T13:45:16;4.88;;;3.78;;
77890;SDS011;67084;43.624;3.876;2023-12-20T13:47:42;5.40;;;4.00;;
77890;SDS011;67084;43.624;3.876;2023-12-20T13:50:08;4.63;;;4.15;;
77890;SDS011;67084;43.624;3.876;2023-12-20T13:52:35;3.55;;;3.25;;
77890;SDS011;67084;43.624;3.876;2023-12-20T13:55:01;4.47;;;4.07;;
77890;SDS011;67084;43.624;3.876;2023-12-20T13:57:27;4.13;;;3.75;;
77890;SDS011;67084;43.624;3.876;2023-12-20T13:59:54;8.00;;;3.70;;
77890;SDS011;67084;43.624;3.876;2023-12-20T14:02:22;4.53;;;4.13;;
77890;SDS011;67084;43.624;3.876;2023-12-20T14:04:48;3.92;;;3.63;;
77890;SDS011;67084;43.624;3.876;2023-12-20T14:07:14;3.38;;;3.17;;
77890;SDS011;67084;43.624;3.876;2023-12-20T14:09:41;3.47;;;3.28;;
77890;SDS011;67084;43.624;3.876;2023-12-20T14:12:10;3.83;;;3.50;;
77890;SDS011;67084;43.624;3.876;2023-12-20T14:14:36;3.72;;;3.42;;
77890;SDS011;67084;43.624;3.876;2023-12-20T14:17:02;3.80;;;3.53;;
77890;SDS011;67084;43.624;3.876;2023-12-20T14:19:29;7.38;;;3.70;;
77890;SDS011;67084;43.624;3.876;2023-12-20T14:21:55;4.82;;;4.28;;
77890;SDS011;67084;43.624;3.876;2023-12-20T14:24:21;3.35;;;3.13;;
77890;SDS011;67084;43.624;3.876;2023-12-20T14:26:47;5.45;;;3.63;;
77890;SDS011;67084;43.624;3.876;2023-12-20T14:29:13;6.68;;;5.65;;
77890;SDS011;67084;43.624;3.876;2023-12-20T14:31:39;3.53;;;3.22;;
77890;SDS011;67084;43.624;3.876;2023-12-20T14:34:05;5.88;;;3.35;;